sensor_id;sensor_type;location;lat;lon;timestamp;temperature;humidity
41435;DHT22;27177;22.262;114.192;2023-04-03T00:27:49;19.30;99.90
41435;DHT22;27177;22.262;114.192;2023-04-03T00:37:55;19.30;99.90
41435;DHT22;27177;22.262;114.192;2023-04-03T00:42:58;19.30;99.90
41435;DHT22;27177;22.262;114.192;2023-04-03T00:45:35;19.30;99.90
41435;DHT22;27177;22.262;114.192;2023-04-03T00:48:03;19.30;99.90
41435;DHT22;27177;22.262;114.192;2023-04-03T00:56:09;19.30;99.90
41435;DHT22;27177;22.262;114.192;2023-04-03T01:08:57;19.40;99.90
41435;DHT22;27177;22.262;114.192;2023-04-03T01:13:59;19.30;99.90
41435;DHT22;27177;22.262;114.192;2023-04-03T01:16:29;19.30;99.90
41435;DHT22;27177;22.262;114.192;2023-04-03T01:24:21;19.40;99.90
41435;DHT22;27177;22.262;114.192;2023-04-03T01:32:04;19.40;99.90
41435;DHT22;27177;22.262;114.192;2023-04-03T01:34:32;19.40;99.90
41435;DHT22;27177;22.262;114.192;2023-04-03T01:57:41;19.60;99.90
41435;DHT22;27177;22.262;114.192;2023-04-03T02:00:08;19.60;99.90
41435;DHT22;27177;22.262;114.192;2023-04-03T02:02:34;19.50;99.90
41435;DHT22;27177;22.262;114.192;2023-04-03T02:05:03;19.50;99.90
41435;DHT22;27177;22.262;114.192;2023-04-03T02:07:29;19.50;99.90
41435;DHT22;27177;22.262;114.192;2023-04-03T02:10:05;19.60;99.90
41435;DHT22;27177;22.262;114.192;2023-04-03T02:15:07;19.60;99.90
41435;DHT22;27177;22.262;114.192;2023-04-03T02:22:46;19.70;99.90
41435;DHT22;27177;22.262;114.192;2023-04-03T02:56:09;19.90;99.90
41435;DHT22;27177;22.262;114.192;2023-04-03T03:06:23;19.90;99.90
41435;DHT22;27177;22.262;114.192;2023-04-03T03:08:58;20.00;99.90
41435;DHT22;27177;22.262;114.192;2023-04-03T03:50:18;20.10;99.90
41435;DHT22;27177;22.262;114.192;2023-04-03T03:52:44;20.00;99.90
41435;DHT22;27177;22.262;114.192;2023-04-03T03:55:12;20.00;99.90
41435;DHT22;27177;22.262;114.192;2023-04-03T03:57:38;20.00;99.90
41435;DHT22;27177;22.262;114.192;2023-04-03T04:33:43;19.90;99.90
41435;DHT22;27177;22.262;114.192;2023-04-03T04:38:45;19.90;99.90
41435;DHT22;27177;22.262;114.192;2023-04-03T04:41:11;19.90;99.90
41435;DHT22;27177;22.262;114.192;2023-04-03T05:22:28;20.00;99.90
41435;DHT22;27177;22.262;114.192;2023-04-03T06:04:14;19.90;99.90
41435;DHT22;27177;22.262;114.192;2023-04-03T06:14:33;19.90;99.90
41435;DHT22;27177;22.262;114.192;2023-04-03T06:16:59;20.00;99.90
41435;DHT22;27177;22.262;114.192;2023-04-03T06:19:26;20.00;99.90
41435;DHT22;27177;22.262;114.192;2023-04-03T06:22:02;20.00;99.90
41435;DHT22;27177;22.262;114.192;2023-04-03T06:38:29;20.00;99.90
41435;DHT22;27177;22.262;114.192;2023-04-03T07:47:43;20.30;99.90
41435;DHT22;27177;22.262;114.192;2023-04-03T07:55:16;20.30;99.90
41435;DHT22;27177;22.262;114.192;2023-04-03T07:57:56;20.30;99.90
41435;DHT22;27177;22.262;114.192;2023-04-03T09:27:28;19.80;99.90
41435;DHT22;27177;22.262;114.192;2023-04-03T09:29:55;19.80;99.90
41435;DHT22;27177;22.262;114.192;2023-04-03T10:34:35;19.70;99.90
41435;DHT22;27177;22.262;114.192;2023-04-03T10:59:00;19.60;99.90
41435;DHT22;27177;22.262;114.192;2023-04-03T11:01:33;19.60;99.90
41435;DHT22;27177;22.262;114.192;2023-04-03T11:04:00;19.60;99.90
41435;DHT22;27177;22.262;114.192;2023-04-03T11:06:31;19.60;99.90
41435;DHT22;27177;22.262;114.192;2023-04-03T11:09:00;19.60;99.90
41435;DHT22;27177;22.262;114.192;2023-04-03T11:11:36;19.60;99.90
41435;DHT22;27177;22.262;114.192;2023-04-03T11:16:30;19.70;99.90
41435;DHT22;27177;22.262;114.192;2023-04-03T11:21:48;19.70;99.90
41435;DHT22;27177;22.262;114.192;2023-04-03T11:24:29;19.70;99.90
41435;DHT22;27177;22.262;114.192;2023-04-03T11:27:03;19.70;99.90
41435;DHT22;27177;22.262;114.192;2023-04-03T11:29:32;19.70;99.90
41435;DHT22;27177;22.262;114.192;2023-04-03T11:34:45;19.70;99.90
41435;DHT22;27177;22.262;114.192;2023-04-03T11:39:39;19.70;99.90
41435;DHT22;27177;22.262;114.192;2023-04-03T11:42:16;19.70;99.90
41435;DHT22;27177;22.262;114.192;2023-04-03T11:45:10;19.70;99.90
41435;DHT22;27177;22.262;114.192;2023-04-03T11:47:45;19.70;99.90
41435;DHT22;27177;22.262;114.192;2023-04-03T11:50:57;19.70;99.90
41435;DHT22;27177;22.262;114.192;2023-04-03T11:52:59;19.70;99.90
41435;DHT22;27177;22.262;114.192;2023-04-03T11:55:52;19.70;99.90
41435;DHT22;27177;22.262;114.192;2023-04-03T11:58:13;19.70;99.90
41435;DHT22;27177;22.262;114.192;2023-04-03T12:14:01;19.70;99.90
41435;DHT22;27177;22.262;114.192;2023-04-03T12:19:02;19.70;99.90
41435;DHT22;27177;22.262;114.192;2023-04-03T12:24:02;19.70;99.90
41435;DHT22;27177;22.262;114.192;2023-04-03T12:31:58;19.80;99.90
41435;DHT22;27177;22.262;114.192;2023-04-03T12:44:57;19.80;99.90
41435;DHT22;27177;22.262;114.192;2023-04-03T12:47:29;19.80;99.90
41435;DHT22;27177;22.262;114.192;2023-04-03T12:49:59;19.90;99.90
41435;DHT22;27177;22.262;114.192;2023-04-03T12:54:55;19.90;99.90
41435;DHT22;27177;22.262;114.192;2023-04-03T12:59:51;19.90;99.90
41435;DHT22;27177;22.262;114.192;2023-04-03T13:02:35;19.90;99.90
41435;DHT22;27177;22.262;114.192;2023-04-03T13:05:08;19.90;99.90
41435;DHT22;27177;22.262;114.192;2023-04-03T13:07:36;19.90;99.90
41435;DHT22;27177;22.262;114.192;2023-04-03T13:12:30;19.90;99.90
41435;DHT22;27177;22.262;114.192;2023-04-03T13:14:58;19.90;99.90
41435;DHT22;27177;22.262;114.192;2023-04-03T13:17:25;19.90;99.90
41435;DHT22;27177;22.262;114.192;2023-04-03T13:19:53;19.90;99.90
41435;DHT22;27177;22.262;114.192;2023-04-03T13:22:27;20.00;99.90
41435;DHT22;27177;22.262;114.192;2023-04-03T13:24:58;20.00;99.90
41435;DHT22;27177;22.262;114.192;2023-04-03T13:27:26;20.00;99.90
41435;DHT22;27177;22.262;114.192;2023-04-03T13:29:53;20.00;99.90
41435;DHT22;27177;22.262;114.192;2023-04-03T13:32:21;20.00;99.90
41435;DHT22;27177;22.262;114.192;2023-04-03T13:34:48;20.00;99.90
41435;DHT22;27177;22.262;114.192;2023-04-03T13:37:22;20.00;99.90
41435;DHT22;27177;22.262;114.192;2023-04-03T13:40:04;20.00;99.90
41435;DHT22;27177;22.262;114.192;2023-04-03T13:42:37;20.00;99.90
41435;DHT22;27177;22.262;114.192;2023-04-03T13:45:23;20.00;99.90
41435;DHT22;27177;22.262;114.192;2023-04-03T13:47:52;20.00;99.90
41435;DHT22;27177;22.262;114.192;2023-04-03T13:50:21;20.10;99.90
41435;DHT22;27177;22.262;114.192;2023-04-03T13:52:53;20.00;99.90
41435;DHT22;27177;22.262;114.192;2023-04-03T13:57:51;20.10;99.90
41435;DHT22;27177;22.262;114.192;2023-04-03T14:02:54;20.10;99.90
41435;DHT22;27177;22.262;114.192;2023-04-03T14:05:22;20.10;99.90
41435;DHT22;27177;22.262;114.192;2023-04-03T14:07:51;20.10;99.90
41435;DHT22;27177;22.262;114.192;2023-04-03T14:10:18;20.00;99.90
41435;DHT22;27177;22.262;114.192;2023-04-03T14:12:44;20.00;99.90
41435;DHT22;27177;22.262;114.192;2023-04-03T14:15:22;20.00;99.90
41435;DHT22;27177;22.262;114.192;2023-04-03T14:17:52;20.00;99.90
41435;DHT22;27177;22.262;114.192;2023-04-03T14:20:19;20.00;99.90
41435;DHT22;27177;22.262;114.192;2023-04-03T14:22:47;20.00;99.90
41435;DHT22;27177;22.262;114.192;2023-04-03T14:25:14;20.00;99.90
41435;DHT22;27177;22.262;114.192;2023-04-03T14:27:45;20.00;99.90
41435;DHT22;27177;22.262;114.192;2023-04-03T14:30:19;20.00;99.90
41435;DHT22;27177;22.262;114.192;2023-04-03T14:32:46;20.00;99.90
41435;DHT22;27177;22.262;114.192;2023-04-03T14:35:13;20.00;99.90
41435;DHT22;27177;22.262;114.192;2023-04-03T14:37:40;20.00;99.90
41435;DHT22;27177;22.262;114.192;2023-04-03T14:40:07;20.00;99.90
41435;DHT22;27177;22.262;114.192;2023-04-03T14:42:34;20.00;99.90
41435;DHT22;27177;22.262;114.192;2023-04-03T14:45:02;20.00;99.90
41435;DHT22;27177;22.262;114.192;2023-04-03T14:47:29;20.00;99.90
41435;DHT22;27177;22.262;114.192;2023-04-03T14:49:56;20.00;99.90
41435;DHT22;27177;22.262;114.192;2023-04-03T14:52:30;20.00;99.90
41435;DHT22;27177;22.262;114.192;2023-04-03T14:54:57;20.00;99.90
41435;DHT22;27177;22.262;114.192;2023-04-03T14:57:25;20.00;99.90
41435;DHT22;27177;22.262;114.192;2023-04-03T14:59:51;20.00;99.90
41435;DHT22;27177;22.262;114.192;2023-04-03T15:04:47;20.00;99.90
41435;DHT22;27177;22.262;114.192;2023-04-03T15:07:15;20.00;99.90
41435;DHT22;27177;22.262;114.192;2023-04-03T15:09:42;20.00;99.90
41435;DHT22;27177;22.262;114.192;2023-04-03T15:12:08;20.00;99.90
41435;DHT22;27177;22.262;114.192;2023-04-03T15:14:35;20.00;99.90
41435;DHT22;27177;22.262;114.192;2023-04-03T15:17:01;20.00;99.90
41435;DHT22;27177;22.262;114.192;2023-04-03T15:19:29;20.00;99.90
41435;DHT22;27177;22.262;114.192;2023-04-03T15:21:55;20.10;99.90
41435;DHT22;27177;22.262;114.192;2023-04-03T15:24:22;20.00;99.90
41435;DHT22;27177;22.262;114.192;2023-04-03T15:26:48;20.10;99.90
41435;DHT22;27177;22.262;114.192;2023-04-03T15:29:17;20.10;99.90
41435;DHT22;27177;22.262;114.192;2023-04-03T15:31:43;20.00;99.90
41435;DHT22;27177;22.262;114.192;2023-04-03T15:34:09;20.00;99.90
41435;DHT22;27177;22.262;114.192;2023-04-03T15:36:36;20.00;99.90
41435;DHT22;27177;22.262;114.192;2023-04-03T15:39:02;20.10;99.90
41435;DHT22;27177;22.262;114.192;2023-04-03T15:41:29;20.10;99.90
41435;DHT22;27177;22.262;114.192;2023-04-03T15:43:55;20.10;99.90
41435;DHT22;27177;22.262;114.192;2023-04-03T15:46:21;20.00;99.90
41435;DHT22;27177;22.262;114.192;2023-04-03T15:48:48;20.10;99.90
41435;DHT22;27177;22.262;114.192;2023-04-03T15:51:15;20.10;99.90
41435;DHT22;27177;22.262;114.192;2023-04-03T15:53:41;20.00;99.90
41435;DHT22;27177;22.262;114.192;2023-04-03T15:56:08;20.00;99.90
41435;DHT22;27177;22.262;114.192;2023-04-03T15:58:35;20.00;99.90
41435;DHT22;27177;22.262;114.192;2023-04-03T16:01:01;20.00;99.90
41435;DHT22;27177;22.262;114.192;2023-04-03T16:03:27;20.00;99.90
41435;DHT22;27177;22.262;114.192;2023-04-03T16:05:56;20.00;99.90
41435;DHT22;27177;22.262;114.192;2023-04-03T16:08:22;20.00;99.90
41435;DHT22;27177;22.262;114.192;2023-04-03T16:10:48;20.00;99.90
41435;DHT22;27177;22.262;114.192;2023-04-03T16:13:17;20.00;99.90
41435;DHT22;27177;22.262;114.192;2023-04-03T16:15:43;20.00;99.90
41435;DHT22;27177;22.262;114.192;2023-04-03T16:18:11;20.00;99.90
41435;DHT22;27177;22.262;114.192;2023-04-03T16:20:39;20.00;99.90
41435;DHT22;27177;22.262;114.192;2023-04-03T16:23:05;20.00;99.90
41435;DHT22;27177;22.262;114.192;2023-04-03T16:25:31;20.00;99.90
41435;DHT22;27177;22.262;114.192;2023-04-03T16:27:58;20.00;99.90
41435;DHT22;27177;22.262;114.192;2023-04-03T16:35:32;20.00;99.90
41435;DHT22;27177;22.262;114.192;2023-04-03T16:37:58;20.00;99.90
41435;DHT22;27177;22.262;114.192;2023-04-03T16:40:24;20.00;99.90
41435;DHT22;27177;22.262;114.192;2023-04-03T16:42:51;20.00;99.90
41435;DHT22;27177;22.262;114.192;2023-04-03T16:45:17;20.00;99.90
41435;DHT22;27177;22.262;114.192;2023-04-03T16:47:45;20.00;99.90
41435;DHT22;27177;22.262;114.192;2023-04-03T16:50:22;20.00;99.90
41435;DHT22;27177;22.262;114.192;2023-04-03T16:52:50;19.90;99.90
41435;DHT22;27177;22.262;114.192;2023-04-03T16:55:16;19.90;99.90
41435;DHT22;27177;22.262;114.192;2023-04-03T16:57:43;19.90;99.90
41435;DHT22;27177;22.262;114.192;2023-04-03T17:00:09;19.90;99.90
41435;DHT22;27177;22.262;114.192;2023-04-03T17:02:38;19.90;99.90
41435;DHT22;27177;22.262;114.192;2023-04-03T17:05:06;19.90;99.90
41435;DHT22;27177;22.262;114.192;2023-04-03T17:07:32;19.90;99.90
41435;DHT22;27177;22.262;114.192;2023-04-03T17:10:01;19.90;99.90
41435;DHT22;27177;22.262;114.192;2023-04-03T17:12:27;19.90;99.90
41435;DHT22;27177;22.262;114.192;2023-04-03T17:14:53;19.90;99.90
41435;DHT22;27177;22.262;114.192;2023-04-03T17:17:22;19.90;99.90
41435;DHT22;27177;22.262;114.192;2023-04-03T17:19:49;19.90;99.90
41435;DHT22;27177;22.262;114.192;2023-04-03T17:22:15;19.90;99.90
41435;DHT22;27177;22.262;114.192;2023-04-03T17:24:42;19.90;99.90
41435;DHT22;27177;22.262;114.192;2023-04-03T17:27:09;19.90;99.90
41435;DHT22;27177;22.262;114.192;2023-04-03T17:29:35;19.90;99.90
41435;DHT22;27177;22.262;114.192;2023-04-03T17:32:01;19.90;99.90
41435;DHT22;27177;22.262;114.192;2023-04-03T17:34:30;19.90;99.90
41435;DHT22;27177;22.262;114.192;2023-04-03T17:36:58;19.90;99.90
41435;DHT22;27177;22.262;114.192;2023-04-03T17:39:24;19.90;99.90
41435;DHT22;27177;22.262;114.192;2023-04-03T17:41:51;19.90;99.90
41435;DHT22;27177;22.262;114.192;2023-04-03T17:44:19;19.90;99.90
41435;DHT22;27177;22.262;114.192;2023-04-03T17:46:46;19.90;99.90
41435;DHT22;27177;22.262;114.192;2023-04-03T17:49:12;19.90;99.90
41435;DHT22;27177;22.262;114.192;2023-04-03T17:51:40;19.90;99.90
41435;DHT22;27177;22.262;114.192;2023-04-03T17:54:06;20.00;99.90
41435;DHT22;27177;22.262;114.192;2023-04-03T17:56:35;20.00;99.90
41435;DHT22;27177;22.262;114.192;2023-04-03T17:59:01;20.00;99.90
41435;DHT22;27177;22.262;114.192;2023-04-03T18:01:32;20.00;99.90
41435;DHT22;27177;22.262;114.192;2023-04-03T18:04:01;20.00;99.90
41435;DHT22;27177;22.262;114.192;2023-04-03T18:09:31;20.00;99.90
41435;DHT22;27177;22.262;114.192;2023-04-03T18:12:07;20.00;99.90
41435;DHT22;27177;22.262;114.192;2023-04-03T18:14:34;20.00;99.90
41435;DHT22;27177;22.262;114.192;2023-04-03T18:17:22;20.00;99.90
41435;DHT22;27177;22.262;114.192;2023-04-03T18:19:47;20.00;99.90
41435;DHT22;27177;22.262;114.192;2023-04-03T18:22:16;20.10;99.90
41435;DHT22;27177;22.262;114.192;2023-04-03T18:27:41;20.10;99.90
41435;DHT22;27177;22.262;114.192;2023-04-03T18:30:09;20.10;99.90
41435;DHT22;27177;22.262;114.192;2023-04-03T18:32:37;20.10;99.90
41435;DHT22;27177;22.262;114.192;2023-04-03T18:35:03;20.10;99.90
41435;DHT22;27177;22.262;114.192;2023-04-03T18:37:29;20.10;99.90
41435;DHT22;27177;22.262;114.192;2023-04-03T18:39:56;20.10;99.90
41435;DHT22;27177;22.262;114.192;2023-04-03T18:42:23;20.10;99.90
41435;DHT22;27177;22.262;114.192;2023-04-03T18:44:54;20.10;99.90
41435;DHT22;27177;22.262;114.192;2023-04-03T18:47:21;20.10;99.90
41435;DHT22;27177;22.262;114.192;2023-04-03T18:49:48;20.10;99.90
41435;DHT22;27177;22.262;114.192;2023-04-03T18:52:14;20.10;99.90
41435;DHT22;27177;22.262;114.192;2023-04-03T18:57:08;20.10;99.90
41435;DHT22;27177;22.262;114.192;2023-04-03T19:02:21;20.10;99.90
41435;DHT22;27177;22.262;114.192;2023-04-03T19:04:50;20.10;99.90
41435;DHT22;27177;22.262;114.192;2023-04-03T19:07:17;20.10;99.90
41435;DHT22;27177;22.262;114.192;2023-04-03T19:09:44;20.10;99.90
41435;DHT22;27177;22.262;114.192;2023-04-03T19:12:10;20.10;99.90
41435;DHT22;27177;22.262;114.192;2023-04-03T19:17:06;20.10;99.90
41435;DHT22;27177;22.262;114.192;2023-04-03T19:19:33;20.10;99.90
41435;DHT22;27177;22.262;114.192;2023-04-03T19:24:35;20.20;99.90
41435;DHT22;27177;22.262;114.192;2023-04-03T19:27:01;20.30;99.90
41435;DHT22;27177;22.262;114.192;2023-04-03T19:32:12;20.30;99.90
41435;DHT22;27177;22.262;114.192;2023-04-03T19:37:14;20.30;99.90
41435;DHT22;27177;22.262;114.192;2023-04-03T19:39:42;20.30;99.90
41435;DHT22;27177;22.262;114.192;2023-04-03T19:42:08;20.30;99.90
41435;DHT22;27177;22.262;114.192;2023-04-03T19:44:34;20.30;99.90
41435;DHT22;27177;22.262;114.192;2023-04-03T19:47:01;20.30;99.90
41435;DHT22;27177;22.262;114.192;2023-04-03T19:49:28;20.40;99.90
41435;DHT22;27177;22.262;114.192;2023-04-03T19:51:54;20.30;99.90
41435;DHT22;27177;22.262;114.192;2023-04-03T19:54:21;20.40;99.90
41435;DHT22;27177;22.262;114.192;2023-04-03T19:56:48;20.40;99.90
41435;DHT22;27177;22.262;114.192;2023-04-03T19:59:15;20.40;99.90
41435;DHT22;27177;22.262;114.192;2023-04-03T20:01:42;20.40;99.90
41435;DHT22;27177;22.262;114.192;2023-04-03T20:04:08;20.40;99.90
41435;DHT22;27177;22.262;114.192;2023-04-03T20:06:34;20.50;99.90
41435;DHT22;27177;22.262;114.192;2023-04-03T20:09:01;20.50;99.90
41435;DHT22;27177;22.262;114.192;2023-04-03T20:11:27;20.50;99.90
41435;DHT22;27177;22.262;114.192;2023-04-03T20:13:54;20.50;99.90
41435;DHT22;27177;22.262;114.192;2023-04-03T20:16:21;20.60;99.90
41435;DHT22;27177;22.262;114.192;2023-04-03T20:18:50;20.60;99.90
41435;DHT22;27177;22.262;114.192;2023-04-03T20:26:22;20.70;99.90
41435;DHT22;27177;22.262;114.192;2023-04-03T20:28:50;20.70;99.90
41435;DHT22;27177;22.262;114.192;2023-04-03T20:31:17;20.70;99.90
41435;DHT22;27177;22.262;114.192;2023-04-03T20:33:43;20.70;99.90
41435;DHT22;27177;22.262;114.192;2023-04-03T20:46:29;20.80;99.90
41435;DHT22;27177;22.262;114.192;2023-04-03T20:56:33;20.80;99.90
41435;DHT22;27177;22.262;114.192;2023-04-03T21:01:28;20.90;99.90
41435;DHT22;27177;22.262;114.192;2023-04-03T21:03:56;20.90;99.90
41435;DHT22;27177;22.262;114.192;2023-04-03T21:32:44;21.00;99.90
41435;DHT22;27177;22.262;114.192;2023-04-03T21:35:10;21.10;99.90
41435;DHT22;27177;22.262;114.192;2023-04-03T21:37:37;21.10;99.90
41435;DHT22;27177;22.262;114.192;2023-04-03T21:40:04;21.20;99.90
41435;DHT22;27177;22.262;114.192;2023-04-03T21:45:06;21.20;99.90
41435;DHT22;27177;22.262;114.192;2023-04-03T21:47:32;21.20;99.90
41435;DHT22;27177;22.262;114.192;2023-04-03T21:50:00;21.30;99.90
41435;DHT22;27177;22.262;114.192;2023-04-03T21:52:26;21.30;99.90
41435;DHT22;27177;22.262;114.192;2023-04-03T21:54:52;21.30;99.90
41435;DHT22;27177;22.262;114.192;2023-04-03T21:57:21;21.30;99.90
41435;DHT22;27177;22.262;114.192;2023-04-03T21:59:48;21.30;99.90
41435;DHT22;27177;22.262;114.192;2023-04-03T22:02:14;21.40;99.90
41435;DHT22;27177;22.262;114.192;2023-04-03T22:04:40;21.40;99.90
41435;DHT22;27177;22.262;114.192;2023-04-03T22:07:07;21.40;99.90
41435;DHT22;27177;22.262;114.192;2023-04-03T22:09:34;21.40;99.90
41435;DHT22;27177;22.262;114.192;2023-04-03T22:12:00;21.40;99.90
41435;DHT22;27177;22.262;114.192;2023-04-03T22:14:27;21.40;99.90
41435;DHT22;27177;22.262;114.192;2023-04-03T22:16:55;21.40;99.90
41435;DHT22;27177;22.262;114.192;2023-04-03T22:21:53;21.50;99.90
41435;DHT22;27177;22.262;114.192;2023-04-03T22:24:19;21.50;99.90
41435;DHT22;27177;22.262;114.192;2023-04-03T22:26:46;21.50;99.90
41435;DHT22;27177;22.262;114.192;2023-04-03T22:29:16;21.50;99.90
41435;DHT22;27177;22.262;114.192;2023-04-03T22:31:42;21.50;99.90
41435;DHT22;27177;22.262;114.192;2023-04-03T22:34:08;21.50;99.90
41435;DHT22;27177;22.262;114.192;2023-04-03T22:36:35;21.60;99.90
41435;DHT22;27177;22.262;114.192;2023-04-03T22:39:02;21.60;99.90
41435;DHT22;27177;22.262;114.192;2023-04-03T22:41:29;21.60;99.90
41435;DHT22;27177;22.262;114.192;2023-04-03T22:43:55;21.60;99.90
41435;DHT22;27177;22.262;114.192;2023-04-03T22:46:22;21.60;99.90
41435;DHT22;27177;22.262;114.192;2023-04-03T22:48:50;21.60;99.90
41435;DHT22;27177;22.262;114.192;2023-04-03T22:51:16;21.60;99.90
41435;DHT22;27177;22.262;114.192;2023-04-03T22:53:43;21.60;99.90
41435;DHT22;27177;22.262;114.192;2023-04-03T22:56:09;21.60;99.90
41435;DHT22;27177;22.262;114.192;2023-04-03T22:58:36;21.60;99.90
41435;DHT22;27177;22.262;114.192;2023-04-03T23:01:03;21.70;99.90
41435;DHT22;27177;22.262;114.192;2023-04-03T23:03:30;21.70;99.90
41435;DHT22;27177;22.262;114.192;2023-04-03T23:05:57;21.70;99.90
41435;DHT22;27177;22.262;114.192;2023-04-03T23:08:23;21.70;99.90
41435;DHT22;27177;22.262;114.192;2023-04-03T23:10:52;21.70;99.90
41435;DHT22;27177;22.262;114.192;2023-04-03T23:13:19;21.70;99.90
41435;DHT22;27177;22.262;114.192;2023-04-03T23:15:50;21.70;99.90
41435;DHT22;27177;22.262;114.192;2023-04-03T23:18:17;21.70;99.90
41435;DHT22;27177;22.262;114.192;2023-04-03T23:20:43;21.70;99.90
41435;DHT22;27177;22.262;114.192;2023-04-03T23:23:09;21.70;99.90
41435;DHT22;27177;22.262;114.192;2023-04-03T23:25:35;21.70;99.90
41435;DHT22;27177;22.262;114.192;2023-04-03T23:28:02;21.70;99.90
41435;DHT22;27177;22.262;114.192;2023-04-03T23:30:28;21.70;99.90
41435;DHT22;27177;22.262;114.192;2023-04-03T23:32:55;21.70;99.90
41435;DHT22;27177;22.262;114.192;2023-04-03T23:35:21;21.80;99.90
41435;DHT22;27177;22.262;114.192;2023-04-03T23:37:48;21.80;99.90
41435;DHT22;27177;22.262;114.192;2023-04-03T23:40:14;21.80;99.90
41435;DHT22;27177;22.262;114.192;2023-04-03T23:42:40;21.70;99.90
41435;DHT22;27177;22.262;114.192;2023-04-03T23:45:07;21.80;99.90
41435;DHT22;27177;22.262;114.192;2023-04-03T23:47:34;21.80;99.90
41435;DHT22;27177;22.262;114.192;2023-04-03T23:50:01;21.80;99.90
41435;DHT22;27177;22.262;114.192;2023-04-03T23:52:29;21.80;99.90
41435;DHT22;27177;22.262;114.192;2023-04-03T23:54:56;21.80;99.90
41435;DHT22;27177;22.262;114.192;2023-04-03T23:57:22;21.90;99.90
41435;DHT22;27177;22.262;114.192;2023-04-03T23:59:48;21.90;99.90
